Time;durP1;ratioP1;P1;durP2;ratioP2;P2;SDS_P1;SDS_P2;PMS_P1;PMS_P2;Temp;Humidity;BMP_temperature;BMP_pressure;BME280_temperature;BME280_humidity;BME280_pressure;Samples;Min_cycle;Max_cycle;Signal;HPM_P1;HPM_P2
2020/12/16 00:01:04;;;;;;;2.2;1;;;;;;;;;;;;;
2020/12/16 00:03:29;;;;;;;1.8;1.1;;;;;;;;;;;;;
2020/12/16 00:05:54;;;;;;;4;1.3;;;;;;;;;;;;;
2020/12/16 00:08:19;;;;;;;1.6;1.2;;;;;;;;;;;;;
2020/12/16 00:10:44;;;;;;;5;1.3;;;;;;;;;;;;;
2020/12/16 00:13:10;;;;;;;3.1;1.5;;;;;;;;;;;;;
2020/12/16 00:15:34;;;;;;;3.6;1.6;;;;;;;;;;;;;
2020/12/16 00:17:59;;;;;;;5.6;1.8;;;;;;;;;;;;;
2020/12/16 00:20:25;;;;;;;3.7;1.7;;;;;;;;;;;;;
2020/12/16 00:22:50;;;;;;;2.5;1.6;;;;;;;;;;;;;
2020/12/16 00:25:15;;;;;;;5.5;2.7;;;;;;;;;;;;;
2020/12/16 00:27:40;;;;;;;4.2;2.3;;;;;;;;;;;;;
2020/12/16 00:30:05;;;;;;;3.8;2.1;;;;;;;;;;;;;
2020/12/16 00:32:30;;;;;;;1.6;1;;;;;;;;;;;;;
2020/12/16 00:34:56;;;;;;;2;1.1;;;;;;;;;;;;;
2020/12/16 00:37:21;;;;;;;2.3;1.2;;;;;;;;;;;;;
2020/12/16 00:39:46;;;;;;;2.3;1.2;;;;;;;;;;;;;
2020/12/16 00:42:11;;;;;;;2.3;1.2;;;;;;;;;;;;;
2020/12/16 00:44:38;;;;;;;1.9;1;;;;;;;;;;;;;
2020/12/16 00:47:01;;;;;;;2.2;1;;;;;;;;;;;;;
2020/12/16 00:49:27;;;;;;;1.9;1.2;;;;;;;;;;;;;
2020/12/16 00:51:52;;;;;;;2;1.3;;;;;;;;;;;;;
2020/12/16 00:54:17;;;;;;;2;1.2;;;;;;;;;;;;;
2020/12/16 00:56:43;;;;;;;2.2;1.2;;;;;;;;;;;;;
2020/12/16 00:59:08;;;;;;;2.8;1.2;;;;;;;;;;;;;
2020/12/16 01:01:33;;;;;;;1.2;0.9;;;;;;;;;;;;;
2020/12/16 01:03:58;;;;;;;0.5;0.5;;;;;;;;;;;;;
2020/12/16 01:06:23;;;;;;;2;1.2;;;;;;;;;;;;;
2020/12/16 01:08:48;;;;;;;3;1.7;;;;;;;;;;;;;
2020/12/16 01:11:14;;;;;;;1.5;0.8;;;;;;;;;;;;;
2020/12/16 01:13:39;;;;;;;3.3;1.5;;;;;;;;;;;;;
2020/12/16 01:16:04;;;;;;;5.4;1.3;;;;;;;;;;;;;
2020/12/16 01:18:30;;;;;;;1.4;1.1;;;;;;;;;;;;;
2020/12/16 01:20:56;;;;;;;0.6;0.6;;;;;;;;;;;;;
2020/12/16 01:23:21;;;;;;;1.9;1.3;;;;;;;;;;;;;
2020/12/16 01:25:46;;;;;;;1.2;0.8;;;;;;;;;;;;;
2020/12/16 01:28:11;;;;;;;1;0.7;;;;;;;;;;;;;
2020/12/16 01:30:36;;;;;;;1.2;0.8;;;;;;;;;;;;;
2020/12/16 01:33:01;;;;;;;1.7;0.9;;;;;;;;;;;;;
2020/12/16 01:35:26;;;;;;;1.3;1;;;;;;;;;;;;;
2020/12/16 01:37:51;;;;;;;1.1;0.9;;;;;;;;;;;;;
2020/12/16 01:40:18;;;;;;;0.7;0.7;;;;;;;;;;;;;
2020/12/16 01:42:43;;;;;;;1.1;0.8;;;;;;;;;;;;;
2020/12/16 01:45:08;;;;;;;0.7;0.7;;;;;;;;;;;;;
2020/12/16 01:47:33;;;;;;;1.6;1.1;;;;;;;;;;;;;
2020/12/16 01:49:58;;;;;;;1.5;0.8;;;;;;;;;;;;;
2020/12/16 01:52:23;;;;;;;1.4;1;;;;;;;;;;;;;
2020/12/16 01:54:48;;;;;;;0.6;0.6;;;;;;;;;;;;;
2020/12/16 01:57:14;;;;;;;1.4;1.1;;;;;;;;;;;;;
2020/12/16 01:59:39;;;;;;;1.2;0.7;;;;;;;;;;;;;
2020/12/16 02:02:05;;;;;;;1.2;0.7;;;;;;;;;;;;;
2020/12/16 02:04:30;;;;;;;3;1.2;;;;;;;;;;;;;
2020/12/16 02:06:55;;;;;;;1.2;0.7;;;;;;;;;;;;;
2020/12/16 02:09:21;;;;;;;0.8;0.8;;;;;;;;;;;;;
2020/12/16 02:11:46;;;;;;;1.8;1.1;;;;;;;;;;;;;
2020/12/16 02:14:11;;;;;;;1.1;0.7;;;;;;;;;;;;;
2020/12/16 02:16:36;;;;;;;10.3;1;;;;;;;;;;;;;
2020/12/16 02:19:02;;;;;;;1.2;0.9;;;;;;;;;;;;;
2020/12/16 02:21:27;;;;;;;11.3;0.8;;;;;;;;;;;;;
2020/12/16 02:23:52;;;;;;;4.1;1.1;;;;;;;;;;;;;
2020/12/16 02:26:17;;;;;;;0.8;0.7;;;;;;;;;;;;;
2020/12/16 02:28:43;;;;;;;1.7;0.8;;;;;;;;;;;;;
2020/12/16 02:31:10;;;;;;;1;0.7;;;;;;;;;;;;;
2020/12/16 02:33:35;;;;;;;3.3;0.8;;;;;;;;;;;;;
2020/12/16 02:36:00;;;;;;;1.4;0.8;;;;;;;;;;;;;
2020/12/16 02:38:26;;;;;;;1.5;0.9;;;;;;;;;;;;;
2020/12/16 02:40:52;;;;;;;1.2;1.1;;;;;;;;;;;;;
2020/12/16 02:43:17;;;;;;;1.4;0.7;;;;;;;;;;;;;
2020/12/16 02:45:44;;;;;;;2.6;1;;;;;;;;;;;;;
2020/12/16 02:48:09;;;;;;;1.5;1.1;;;;;;;;;;;;;
2020/12/16 02:50:35;;;;;;;2.3;1.7;;;;;;;;;;;;;
2020/12/16 02:53:00;;;;;;;2.5;1.6;;;;;;;;;;;;;
2020/12/16 02:55:26;;;;;;;2.6;1.6;;;;;;;;;;;;;
2020/12/16 02:57:51;;;;;;;1.4;1;;;;;;;;;;;;;
2020/12/16 03:00:20;;;;;;;0.7;0.6;;;;;;;;;;;;;
2020/12/16 03:02:45;;;;;;;5;1.3;;;;;;;;;;;;;
2020/12/16 03:05:10;;;;;;;0.9;0.7;;;;;;;;;;;;;
2020/12/16 03:07:36;;;;;;;1.2;0.8;;;;;;;;;;;;;
2020/12/16 03:10:01;;;;;;;1;0.9;;;;;;;;;;;;;
2020/12/16 03:12:26;;;;;;;1.6;0.7;;;;;;;;;;;;;
2020/12/16 03:14:51;;;;;;;1.5;0.8;;;;;;;;;;;;;
2020/12/16 03:17:16;;;;;;;0.6;0.6;;;;;;;;;;;;;
2020/12/16 03:19:41;;;;;;;0.6;0.6;;;;;;;;;;;;;
2020/12/16 03:22:06;;;;;;;0.7;0.6;;;;;;;;;;;;;
2020/12/16 03:24:32;;;;;;;1.2;0.9;;;;;;;;;;;;;
2020/12/16 03:26:57;;;;;;;0.8;0.7;;;;;;;;;;;;;
2020/12/16 03:29:22;;;;;;;3;1;;;;;;;;;;;;;
2020/12/16 03:31:48;;;;;;;1.4;0.9;;;;;;;;;;;;;
2020/12/16 03:34:13;;;;;;;1.6;1;;;;;;;;;;;;;
2020/12/16 03:36:39;;;;;;;0.9;0.6;;;;;;;;;;;;;
2020/12/16 03:39:04;;;;;;;1.1;0.7;;;;;;;;;;;;;
2020/12/16 03:41:31;;;;;;;0.6;0.5;;;;;;;;;;;;;
2020/12/16 03:43:56;;;;;;;4.6;1.2;;;;;;;;;;;;;
2020/12/16 03:46:23;;;;;;;3.1;1.1;;;;;;;;;;;;;
2020/12/16 03:48:48;;;;;;;13.7;1.5;;;;;;;;;;;;;
2020/12/16 03:51:14;;;;;;;0.6;0.6;;;;;;;;;;;;;
2020/12/16 03:53:39;;;;;;;2.2;0.9;;;;;;;;;;;;;
2020/12/16 03:56:05;;;;;;;1.5;0.9;;;;;;;;;;;;;
2020/12/16 03:58:30;;;;;;;1.1;0.8;;;;;;;;;;;;;
2020/12/16 04:02:30;;;;;;;1.5;0.6;;;;;;;3.36;89.8916;937.315;;;;
2020/12/16 04:04:56;;;;;;;0.9;0.8;;;;;;;3.7;88.35938;937.3155;;;;
2020/12/16 04:07:21;;;;;;;1.1;0.5;;;;;;;3.5;88.6416;937.3201;;;;
2020/12/16 04:09:47;;;;;;;0.7;0.5;;;;;;;3.49;88.78613;937.3884;;;;
2020/12/16 04:12:12;;;;;;;0.7;0.5;;;;;;;3.48;88.6377;937.4068;;;;
2020/12/16 04:14:39;;;;;;;1.3;0.6;;;;;;;3.3;89.38574;937.4545;;;;
2020/12/16 04:17:04;;;;;;;0.9;0.6;;;;;;;3.38;89.38086;937.4727;;;;
2020/12/16 04:19:31;;;;;;;0.2;0.2;;;;;;;3.3;90.30664;937.4807;;;;
2020/12/16 04:21:56;;;;;;;0.7;0.6;;;;;;;3.68;89.16211;937.4196;;;;
2020/12/16 04:24:22;;;;;;;0.5;0.4;;;;;;;3.86;87.97461;937.4762;;;;
2020/12/16 04:26:47;;;;;;;0.4;0.4;;;;;;;4;87.03613;937.5176;;;;
2020/12/16 04:29:15;;;;;;;0.5;0.4;;;;;;;4.08;86.16602;937.4885;;;;
2020/12/16 04:31:40;;;;;;;0.6;0.6;;;;;;;3.95;86.22852;937.5611;;;;
2020/12/16 04:34:05;;;;;;;0.6;0.4;;;;;;;4;86.51855;937.598;;;;
2020/12/16 04:36:33;;;;;;;1.6;0.6;;;;;;;4.03;86.41211;937.5378;;;;
2020/12/16 04:38:58;;;;;;;1.4;0.6;;;;;;;4.03;86.36816;937.5623;;;;
2020/12/16 04:41:24;;;;;;;1.1;0.4;;;;;;;4.23;85.70898;937.476;;;;
2020/12/16 04:43:50;;;;;;;0.4;0.4;;;;;;;4.26;85.04199;937.5432;;;;
2020/12/16 04:46:18;;;;;;;1.5;0.7;;;;;;;4.25;85.32129;937.5223;;;;
2020/12/16 04:48:44;;;;;;;1.2;0.8;;;;;;;4.09;85.82813;937.5666;;;;
2020/12/16 04:51:08;;;;;;;1;0.5;;;;;;;3.93;86.89941;937.5746;;;;
2020/12/16 04:53:33;;;;;;;1.1;0.6;;;;;;;3.97;86.66113;937.6067;;;;
2020/12/16 04:55:59;;;;;;;0.8;0.7;;;;;;;4.16;86.28125;937.5704;;;;
2020/12/16 04:58:24;;;;;;;0.8;0.8;;;;;;;4.14;85.76074;937.5652;;;;
2020/12/16 05:00:49;;;;;;;1.1;1;;;;;;;3.93;86.71973;937.61;;;;
2020/12/16 05:03:17;;;;;;;3.8;1.2;;;;;;;3.76;87.58398;937.5545;;;;
2020/12/16 05:05:42;;;;;;;2;1.1;;;;;;;3.87;87.24414;937.6512;;;;
2020/12/16 05:08:07;;;;;;;1.5;1;;;;;;;3.79;87.5332;937.6255;;;;
2020/12/16 05:10:35;;;;;;;7.4;0.9;;;;;;;3.41;89.36426;937.6872;;;;
2020/12/16 05:13:00;;;;;;;1;0.6;;;;;;;3.33;90.02051;937.7712;;;;
2020/12/16 05:15:26;;;;;;;3.3;0.7;;;;;;;3.58;89.25391;937.7441;;;;
2020/12/16 05:17:51;;;;;;;3.3;0.6;;;;;;;3.72;88.49805;937.7098;;;;
2020/12/16 05:20:17;;;;;;;0.7;0.4;;;;;;;4.02;87.32031;937.7234;;;;
2020/12/16 05:22:42;;;;;;;1.2;0.7;;;;;;;4.11;86.63281;937.5744;;;;
2020/12/16 05:25:16;;;;;;;0.5;0.5;;;;;;;4.28;85.71094;937.6858;;;;
2020/12/16 05:27:44;;;;;;;0.7;0.5;;;;;;;4.36;84.92773;937.6142;;;;
2020/12/16 05:30:09;;;;;;;0.7;0.6;;;;;;;4.36;84.66797;937.6898;;;;
2020/12/16 05:32:36;;;;;;;2;0.8;;;;;;;4.37;84.5459;937.7682;;;;
2020/12/16 05:35:01;;;;;;;1.4;0.9;;;;;;;4.27;84.52539;937.7769;;;;
2020/12/16 05:37:26;;;;;;;0.7;0.6;;;;;;;4.08;85.20801;937.7798;;;;
2020/12/16 05:39:53;;;;;;;0.3;0.3;;;;;;;4.01;85.69922;937.8113;;;;
2020/12/16 05:42:18;;;;;;;0.7;0.6;;;;;;;3.76;86.75195;937.7961;;;;
2020/12/16 05:44:43;;;;;;;1.1;0.7;;;;;;;3.51;88.2168;937.7567;;;;
2020/12/16 05:47:08;;;;;;;0.8;0.8;;;;;;;3.66;87.46191;937.7228;;;;
2020/12/16 05:49:34;;;;;;;3.7;1;;;;;;;3.83;86.82129;937.7459;;;;
2020/12/16 05:51:59;;;;;;;2.2;1.3;;;;;;;3.9;86.17383;937.7509;;;;
2020/12/16 05:54:25;;;;;;;2.4;1.3;;;;;;;3.94;85.54102;937.7759;;;;
2020/12/16 05:56:50;;;;;;;3.7;1.6;;;;;;;3.96;85.07227;937.7118;;;;
2020/12/16 05:59:18;;;;;;;1.8;1.2;;;;;;;3.93;84.87598;937.7991;;;;
2020/12/16 06:01:43;;;;;;;3.9;1.5;;;;;;;4.01;84.59766;937.8602;;;;
2020/12/16 06:04:09;;;;;;;3.3;1.5;;;;;;;3.94;84.62988;937.7813;;;;
2020/12/16 06:06:34;;;;;;;5.9;1.1;;;;;;;3.83;85.24707;937.8892;;;;
2020/12/16 06:09:00;;;;;;;1.3;0.8;;;;;;;3.72;85.75391;937.9168;;;;
2020/12/16 06:11:25;;;;;;;1;0.9;;;;;;;3.52;86.91797;937.8223;;;;
2020/12/16 06:13:52;;;;;;;1;0.8;;;;;;;3.5;86.94531;937.9328;;;;
2020/12/16 06:16:17;;;;;;;1.6;1.2;;;;;;;3.49;87.21484;937.9088;;;;
2020/12/16 06:18:44;;;;;;;3.1;1.1;;;;;;;3.59;86.68555;937.9933;;;;
2020/12/16 06:21:08;;;;;;;2.4;1.7;;;;;;;3.67;85.71094;937.9733;;;;
2020/12/16 06:23:33;;;;;;;4.5;2.6;;;;;;;3.64;85.53711;938.0197;;;;
2020/12/16 06:26:01;;;;;;;1;0.9;;;;;;;3.53;85.87305;937.9589;;;;
2020/12/16 06:28:26;;;;;;;2.3;1.3;;;;;;;3.65;85.31445;937.9869;;;;
2020/12/16 06:30:53;;;;;;;1.8;1;;;;;;;3.52;85.19922;937.9122;;;;
2020/12/16 06:33:19;;;;;;;2.7;1;;;;;;;3.59;85.09766;937.9986;;;;
2020/12/16 06:35:43;;;;;;;1.1;0.9;;;;;;;3.6;85.28223;938.04;;;;
2020/12/16 06:38:08;;;;;;;4.1;1.1;;;;;;;3.67;85.11523;938.0608;;;;
2020/12/16 06:40:33;;;;;;;1.2;0.9;;;;;;;3.67;84.8125;938.0742;;;;
2020/12/16 06:43:04;;;;;;;2.9;1.5;;;;;;;3.64;84.35547;938.0377;;;;
2020/12/16 06:45:29;;;;;;;2.1;1.4;;;;;;;3.64;84.55762;938.1361;;;;
2020/12/16 06:47:56;;;;;;;1.9;1.3;;;;;;;3.65;84.67383;938.0775;;;;
2020/12/16 06:50:22;;;;;;;9.5;1.5;;;;;;;3.65;84.47168;938.1217;;;;
2020/12/16 06:52:47;;;;;;;2.8;1.6;;;;;;;3.61;84.7002;938.1077;;;;
2020/12/16 06:55:12;;;;;;;1.6;1.3;;;;;;;3.61;84.95703;938.2241;;;;
2020/12/16 06:57:40;;;;;;;2.7;1.6;;;;;;;3.53;85.42383;938.3297;;;;
2020/12/16 07:00:04;;;;;;;2.8;1.6;;;;;;;3.5;85.33984;938.3403;;;;
2020/12/16 07:02:29;;;;;;;3;1.5;;;;;;;3.5;85.40723;938.3894;;;;
2020/12/16 07:04:54;;;;;;;2.7;1.8;;;;;;;3.41;85.88281;938.4158;;;;
2020/12/16 07:07:19;;;;;;;1.3;1.2;;;;;;;3.23;87.04785;938.3813;;;;
2020/12/16 07:09:44;;;;;;;2.8;1.9;;;;;;;3.21;87.21191;938.4381;;;;
2020/12/16 07:12:09;;;;;;;1.7;1.4;;;;;;;3.28;87.22461;938.4729;;;;
2020/12/16 07:14:34;;;;;;;3.2;2;;;;;;;3.23;88.1582;938.4483;;;;
2020/12/16 07:17:00;;;;;;;4.4;2.6;;;;;;;3.37;87.41406;938.4913;;;;
2020/12/16 07:19:25;;;;;;;3;1.7;;;;;;;3.48;87.00977;938.5845;;;;
2020/12/16 07:21:50;;;;;;;5.6;2.3;;;;;;;3.62;86.36523;938.6378;;;;
2020/12/16 07:24:15;;;;;;;11.8;5;;;;;;;3.49;86.53027;938.666;;;;
2020/12/16 07:26:44;;;;;;;8.3;3.3;;;;;;;3.53;87.08594;938.6979;;;;
2020/12/16 07:29:07;;;;;;;5.3;3;;;;;;;3.56;86.66504;938.6965;;;;
2020/12/16 07:31:32;;;;;;;5.1;2.7;;;;;;;3.47;87.22266;938.744;;;;
2020/12/16 07:33:58;;;;;;;4.9;2.7;;;;;;;3.52;87.31055;938.7701;;;;
2020/12/16 07:36:23;;;;;;;5.7;2.4;;;;;;;3.77;86.59863;938.7392;;;;
2020/12/16 07:38:49;;;;;;;5.8;2.6;;;;;;;3.84;86.09375;938.8254;;;;
2020/12/16 07:41:14;;;;;;;3.2;2.3;;;;;;;3.77;85.9873;938.8328;;;;
2020/12/16 07:43:39;;;;;;;4.1;2.8;;;;;;;3.94;85.87793;938.7911;;;;
2020/12/16 07:46:04;;;;;;;9.5;4.9;;;;;;;4.12;85.75684;938.8206;;;;
2020/12/16 07:48:30;;;;;;;14.1;7;;;;;;;4.26;85.60449;938.7844;;;;
2020/12/16 07:50:56;;;;;;;9.9;5.9;;;;;;;4.17;85.85645;938.8056;;;;
2020/12/16 07:53:21;;;;;;;6.5;3.3;;;;;;;3.93;86.28125;938.8207;;;;
2020/12/16 07:55:46;;;;;;;6.5;2;;;;;;;4.05;85.85449;938.8014;;;;
2020/12/16 07:58:13;;;;;;;2.8;1.9;;;;;;;4.11;85.63184;938.7864;;;;
2020/12/16 08:00:38;;;;;;;4.3;2.8;;;;;;;3.71;87.48242;938.884;;;;
2020/12/16 08:03:05;;;;;;;3.3;2.2;;;;;;;3.93;86.83008;938.8945;;;;
2020/12/16 08:05:30;;;;;;;4.4;2.6;;;;;;;3.96;86.3877;938.8825;;;;
2020/12/16 08:07:55;;;;;;;4.3;2.5;;;;;;;4.08;85.87109;938.9033;;;;
2020/12/16 08:10:20;;;;;;;8.8;2.8;;;;;;;3.9;86.53223;938.9644;;;;
2020/12/16 08:12:53;;;;;;;4.2;2.7;;;;;;;3.79;87.00488;938.9981;;;;
2020/12/16 08:15:14;;;;;;;4.5;2.9;;;;;;;3.83;86.79883;939.0108;;;;
2020/12/16 08:17:40;;;;;;;4.3;3.1;;;;;;;3.88;87.12402;939.0559;;;;
2020/12/16 08:20:03;;;;;;;4.2;2.7;;;;;;;4.16;86.0918;939.0536;;;;
2020/12/16 08:22:31;;;;;;;3.7;2.4;;;;;;;4.34;85.53027;939.0408;;;;
2020/12/16 08:24:56;;;;;;;3.9;2.1;;;;;;;4.52;84.7334;939.1513;;;;
2020/12/16 08:27:22;;;;;;;3.1;2;;;;;;;4.45;84.47168;939.2395;;;;
2020/12/16 08:29:48;;;;;;;10.2;1.6;;;;;;;4.36;85.0498;939.2338;;;;
2020/12/16 08:32:13;;;;;;;4.5;1.8;;;;;;;4.54;84.79492;939.1465;;;;
2020/12/16 08:34:39;;;;;;;1.9;1.6;;;;;;;4.72;84.23242;939.2047;;;;
2020/12/16 08:37:04;;;;;;;2.1;1.6;;;;;;;4.83;83.97168;939.2308;;;;
2020/12/16 08:39:31;;;;;;;4.1;2.1;;;;;;;4.82;83.71094;939.3069;;;;
2020/12/16 08:41:56;;;;;;;3;2.3;;;;;;;;;;;;;
2020/12/16 08:44:22;;;;;;;7.1;2.9;;;;;;;;;;;;;
2020/12/16 08:46:47;;;;;;;3.9;2.5;;;;;;;;;;;;;
2020/12/16 08:49:12;;;;;;;5.6;2.7;;;;;;;;;;;;;
2020/12/16 08:51:38;;;;;;;7.3;2.3;;;;;;;;;;;;;
2020/12/16 08:54:03;;;;;;;3.3;1.8;;;;;;;;;;;;;
2020/12/16 08:56:29;;;;;;;6.3;2.1;;;;;;;;;;;;;
2020/12/16 08:58:54;;;;;;;4;2.1;;;;;;;;;;;;;
2020/12/16 09:01:20;;;;;;;3.3;1.9;;;;;;;;;;;;;
2020/12/16 09:03:45;;;;;;;2.8;1.9;;;;;;;;;;;;;
2020/12/16 09:06:11;;;;;;;2.9;1.7;;;;;;;;;;;;;
2020/12/16 09:08:36;;;;;;;3.1;1.6;;;;;;;;;;;;;
2020/12/16 09:11:02;;;;;;;8.9;3.1;;;;;;;;;;;;;
2020/12/16 09:13:27;;;;;;;14.4;7;;;;;;;;;;;;;
2020/12/16 09:15:54;;;;;;;3.9;2.7;;;;;;;;;;;;;
2020/12/16 09:18:19;;;;;;;5.1;2.6;;;;;;;;;;;;;
2020/12/16 09:20:44;;;;;;;4.3;3.2;;;;;;;;;;;;;
2020/12/16 09:23:10;;;;;;;41.1;18.6;;;;;;;;;;;;;
2020/12/16 09:25:35;;;;;;;60.5;23.3;;;;;;;;;;;;;
2020/12/16 09:28:00;;;;;;;111.8;40.9;;;;;;;;;;;;;
2020/12/16 09:30:26;;;;;;;22.8;9.8;;;;;;;;;;;;;
2020/12/16 09:32:51;;;;;;;9.6;5.4;;;;;;;;;;;;;
2020/12/16 09:35:17;;;;;;;10.6;4.2;;;;;;;;;;;;;
2020/12/16 09:37:42;;;;;;;7.5;3.5;;;;;;;;;;;;;
2020/12/16 09:40:07;;;;;;;6.1;3.3;;;;;;;;;;;;;
2020/12/16 09:42:32;;;;;;;6.5;3;;;;;;;;;;;;;
2020/12/16 09:44:58;;;;;;;5.3;2.8;;;;;;;;;;;;;
2020/12/16 09:47:24;;;;;;;6.4;3.2;;;;;;;;;;;;;
2020/12/16 09:49:48;;;;;;;5.5;3.8;;;;;;;;;;;;;
2020/12/16 09:52:13;;;;;;;7.6;4.7;;;;;;;;;;;;;
2020/12/16 09:54:38;;;;;;;6.2;3.1;;;;;;;;;;;;;
2020/12/16 09:57:03;;;;;;;6.9;4.5;;;;;;;;;;;;;
2020/12/16 09:59:29;;;;;;;26.2;11.6;;;;;;;;;;;;;
2020/12/16 10:01:54;;;;;;;5.9;2.5;;;;;;;;;;;;;
2020/12/16 10:04:19;;;;;;;12.8;5.4;;;;;;;;;;;;;
2020/12/16 10:06:44;;;;;;;3.1;2.1;;;;;;;;;;;;;
2020/12/16 10:09:09;;;;;;;6.4;2.4;;;;;;;;;;;;;
2020/12/16 10:11:34;;;;;;;6.8;2.9;;;;;;;;;;;;;
2020/12/16 10:13:59;;;;;;;7.4;3.2;;;;;;;;;;;;;
2020/12/16 10:16:25;;;;;;;5.9;2.2;;;;;;;;;;;;;
2020/12/16 10:18:50;;;;;;;5;2.2;;;;;;;;;;;;;
2020/12/16 10:21:15;;;;;;;3.2;2.2;;;;;;;;;;;;;
2020/12/16 10:23:40;;;;;;;4;2.4;;;;;;;;;;;;;
2020/12/16 10:26:05;;;;;;;4.6;2.5;;;;;;;;;;;;;
2020/12/16 10:28:30;;;;;;;4.7;2.5;;;;;;;;;;;;;
2020/12/16 10:30:56;;;;;;;19.1;10;;;;;;;;;;;;;
2020/12/16 10:33:21;;;;;;;61.5;30;;;;;;;;;;;;;
2020/12/16 10:35:46;;;;;;;5.4;2.9;;;;;;;;;;;;;
2020/12/16 10:38:11;;;;;;;9.3;3.6;;;;;;;;;;;;;
2020/12/16 10:40:36;;;;;;;9.4;2.1;;;;;;;;;;;;;
2020/12/16 10:43:01;;;;;;;5.5;1.8;;;;;;;;;;;;;
2020/12/16 10:45:27;;;;;;;22.3;10.3;;;;;;;;;;;;;
2020/12/16 10:47:57;;;;;;;137.1;60.8;;;;;;;;;;;;;
2020/12/16 10:50:17;;;;;;;145.2;57.9;;;;;;;;;;;;;
2020/12/16 10:52:43;;;;;;;22.2;10.6;;;;;;;;;;;;;
2020/12/16 10:55:08;;;;;;;18;6;;;;;;;;;;;;;
2020/12/16 10:57:34;;;;;;;6.1;3.4;;;;;;;;;;;;;
2020/12/16 10:59:59;;;;;;;13.8;4.9;;;;;;;;;;;;;
2020/12/16 11:02:26;;;;;;;21.7;9.9;;;;;;;;;;;;;
2020/12/16 11:04:51;;;;;;;11.7;5.3;;;;;;;;;;;;;
2020/12/16 11:07:17;;;;;;;3.4;2.6;;;;;;;;;;;;;
2020/12/16 11:09:42;;;;;;;3.3;1.8;;;;;;;;;;;;;
2020/12/16 11:12:07;;;;;;;2.4;1.5;;;;;;;;;;;;;
2020/12/16 11:14:32;;;;;;;2.1;1.5;;;;;;;;;;;;;
2020/12/16 11:16:57;;;;;;;1.6;1.2;;;;;;;;;;;;;
2020/12/16 11:19:22;;;;;;;10;4;;;;;;;;;;;;;
2020/12/16 11:21:48;;;;;;;4.5;2;;;;;;;;;;;;;
2020/12/16 11:24:13;;;;;;;4.5;2.6;;;;;;;;;;;;;
2020/12/16 11:26:38;;;;;;;5.7;2.8;;;;;;;;;;;;;
2020/12/16 11:29:04;;;;;;;4.9;2.7;;;;;;;;;;;;;
2020/12/16 11:31:29;;;;;;;3.3;1.8;;;;;;;;;;;;;
2020/12/16 11:33:55;;;;;;;2;1.4;;;;;;;;;;;;;
2020/12/16 11:36:20;;;;;;;2.1;1.4;;;;;;;;;;;;;
2020/12/16 11:38:46;;;;;;;4;2;;;;;;;;;;;;;
2020/12/16 11:41:11;;;;;;;1.7;1.3;;;;;;;;;;;;;
2020/12/16 11:43:36;;;;;;;2.9;1.8;;;;;;;;;;;;;
2020/12/16 11:46:01;;;;;;;3.2;1.8;;;;;;;;;;;;;
2020/12/16 11:48:27;;;;;;;1.7;1.5;;;;;;;;;;;;;
2020/12/16 11:50:52;;;;;;;2.2;1.8;;;;;;;;;;;;;
2020/12/16 11:53:17;;;;;;;1.3;0.9;;;;;;;;;;;;;
2020/12/16 11:55:43;;;;;;;2.5;1.5;;;;;;;;;;;;;
2020/12/16 11:58:08;;;;;;;3.1;1.3;;;;;;;;;;;;;
2020/12/16 12:00:34;;;;;;;2.5;1.4;;;;;;;;;;;;;
2020/12/16 12:03:02;;;;;;;0.8;0.5;;;;;;;;;;;;;
2020/12/16 12:05:26;;;;;;;1.5;0.9;;;;;;;;;;;;;
2020/12/16 12:07:51;;;;;;;8.8;0.8;;;;;;;;;;;;;
2020/12/16 12:10:16;;;;;;;1.1;0.9;;;;;;;;;;;;;
2020/12/16 12:12:41;;;;;;;1.3;0.8;;;;;;;;;;;;;
2020/12/16 12:15:11;;;;;;;0.7;0.4;;;;;;;;;;;;;
2020/12/16 12:17:35;;;;;;;1.9;0.7;;;;;;;;;;;;;
2020/12/16 12:20:00;;;;;;;1;0.6;;;;;;;;;;;;;
2020/12/16 12:22:25;;;;;;;4;1.1;;;;;;;;;;;;;
2020/12/16 12:24:50;;;;;;;1.4;1.1;;;;;;;;;;;;;
2020/12/16 12:27:15;;;;;;;0.7;0.5;;;;;;;;;;;;;
2020/12/16 12:29:42;;;;;;;2;0.7;;;;;;;;;;;;;
2020/12/16 12:32:07;;;;;;;0.6;0.5;;;;;;;;;;;;;
2020/12/16 12:34:33;;;;;;;1.3;0.9;;;;;;;;;;;;;
2020/12/16 12:37:01;;;;;;;1.2;0.9;;;;;;;;;;;;;
2020/12/16 12:39:23;;;;;;;1.3;1.2;;;;;;;;;;;;;
2020/12/16 12:41:49;;;;;;;1.1;0.9;;;;;;;;;;;;;
2020/12/16 12:44:15;;;;;;;4;1.7;;;;;;;;;;;;;
2020/12/16 12:46:40;;;;;;;3;1.3;;;;;;;;;;;;;
2020/12/16 12:49:06;;;;;;;2;1.1;;;;;;;;;;;;;
2020/12/16 12:51:31;;;;;;;1.1;0.8;;;;;;;;;;;;;
2020/12/16 12:53:56;;;;;;;2.6;1.3;;;;;;;;;;;;;
2020/12/16 12:56:21;;;;;;;1.6;1.1;;;;;;;;;;;;;
2020/12/16 12:58:46;;;;;;;1.6;1.2;;;;;;;;;;;;;
2020/12/16 13:01:11;;;;;;;3;1.5;;;;;;;;;;;;;
2020/12/16 13:03:36;;;;;;;2.2;1;;;;;;;;;;;;;
2020/12/16 13:06:02;;;;;;;1.1;1;;;;;;;;;;;;;
2020/12/16 13:08:27;;;;;;;2.3;1.4;;;;;;;;;;;;;
2020/12/16 13:10:54;;;;;;;2.1;1.3;;;;;;;;;;;;;
2020/12/16 13:13:23;;;;;;;1.8;1.3;;;;;;;;;;;;;
2020/12/16 13:15:45;;;;;;;2;1.2;;;;;;;;;;;;;
2020/12/16 13:18:10;;;;;;;0.6;0.5;;;;;;;;;;;;;
2020/12/16 13:20:35;;;;;;;1.1;0.5;;;;;;;;;;;;;
2020/12/16 13:23:00;;;;;;;0.9;0.9;;;;;;;;;;;;;
2020/12/16 13:25:25;;;;;;;1.3;0.7;;;;;;;;;;;;;
2020/12/16 13:27:52;;;;;;;1.7;0.7;;;;;;;;;;;;;
2020/12/16 13:30:17;;;;;;;1.4;0.9;;;;;;;;;;;;;
2020/12/16 13:32:42;;;;;;;2.2;0.6;;;;;;;;;;;;;
2020/12/16 13:35:07;;;;;;;1;0.5;;;;;;;;;;;;;
2020/12/16 13:37:32;;;;;;;1;0.5;;;;;;;;;;;;;
2020/12/16 13:39:57;;;;;;;1;0.8;;;;;;;;;;;;;
2020/12/16 13:42:23;;;;;;;0.8;0.7;;;;;;;;;;;;;
2020/12/16 13:44:49;;;;;;;3.6;1;;;;;;;;;;;;;
2020/12/16 13:47:14;;;;;;;1.4;0.8;;;;;;;;;;;;;
2020/12/16 13:49:40;;;;;;;0.5;0.5;;;;;;;;;;;;;
2020/12/16 13:52:07;;;;;;;1.9;0.6;;;;;;;;;;;;;
2020/12/16 13:54:30;;;;;;;0.9;0.8;;;;;;;;;;;;;
2020/12/16 13:56:56;;;;;;;0.9;0.9;;;;;;;;;;;;;
2020/12/16 13:59:21;;;;;;;1.8;1.4;;;;;;;;;;;;;
2020/12/16 14:01:46;;;;;;;1.2;1.1;;;;;;;;;;;;;
2020/12/16 14:04:11;;;;;;;2.3;1.2;;;;;;;;;;;;;
2020/12/16 14:06:36;;;;;;;1.7;1.1;;;;;;;;;;;;;
2020/12/16 14:09:01;;;;;;;1.8;1.3;;;;;;;;;;;;;
2020/12/16 14:11:26;;;;;;;1.1;1;;;;;;;;;;;;;
2020/12/16 14:13:52;;;;;;;2.3;1.4;;;;;;;;;;;;;
2020/12/16 14:16:19;;;;;;;1.7;1.2;;;;;;;;;;;;;
2020/12/16 14:18:44;;;;;;;6.4;2.4;;;;;;;;;;;;;
2020/12/16 14:21:09;;;;;;;4.6;3;;;;;;;;;;;;;
2020/12/16 14:23:34;;;;;;;5.7;2.7;;;;;;;;;;;;;
2020/12/16 14:25:59;;;;;;;4.8;2.7;;;;;;;;;;;;;
2020/12/16 14:28:25;;;;;;;6.7;3.7;;;;;;;;;;;;;
2020/12/16 14:30:50;;;;;;;7.4;3.8;;;;;;;;;;;;;
2020/12/16 14:33:15;;;;;;;5.1;3.3;;;;;;;;;;;;;
2020/12/16 14:35:40;;;;;;;8.6;3.3;;;;;;;;;;;;;
2020/12/16 14:38:05;;;;;;;5.5;3.3;;;;;;;;;;;;;
2020/12/16 14:40:31;;;;;;;7.4;4.3;;;;;;;;;;;;;
2020/12/16 14:42:55;;;;;;;11.1;5;;;;;;;;;;;;;
2020/12/16 14:45:21;;;;;;;8.8;4.7;;;;;;;;;;;;;
2020/12/16 14:47:46;;;;;;;7.7;4.7;;;;;;;;;;;;;
2020/12/16 14:50:11;;;;;;;9.3;4.5;;;;;;;;;;;;;
2020/12/16 14:52:36;;;;;;;6.8;4.8;;;;;;;;;;;;;
2020/12/16 14:55:01;;;;;;;10.7;4.9;;;;;;;;;;;;;
2020/12/16 14:57:26;;;;;;;14.8;6.5;;;;;;;;;;;;;
2020/12/16 14:59:52;;;;;;;10.6;5.7;;;;;;;;;;;;;
2020/12/16 15:02:17;;;;;;;12.7;6;;;;;;;;;;;;;
2020/12/16 15:04:42;;;;;;;17.3;6.1;;;;;;;;;;;;;
2020/12/16 15:07:07;;;;;;;14.4;6.5;;;;;;;;;;;;;
2020/12/16 15:09:32;;;;;;;14.4;5.9;;;;;;;;;;;;;
2020/12/16 15:11:57;;;;;;;21.3;9.4;;;;;;;;;;;;;
2020/12/16 15:14:22;;;;;;;11.9;5.9;;;;;;;;;;;;;
2020/12/16 15:16:48;;;;;;;11.1;6.2;;;;;;;;;;;;;
2020/12/16 15:19:13;;;;;;;14.3;6.4;;;;;;;;;;;;;
2020/12/16 15:21:38;;;;;;;12;5.9;;;;;;;;;;;;;
2020/12/16 15:24:03;;;;;;;9.3;5.2;;;;;;;;;;;;;
2020/12/16 15:26:30;;;;;;;10.3;5.1;;;;;;;;;;;;;
2020/12/16 15:28:53;;;;;;;10;5.7;;;;;;;;;;;;;
2020/12/16 15:31:18;;;;;;;12.1;4.9;;;;;;;;;;;;;
2020/12/16 15:33:44;;;;;;;10.6;6.4;;;;;;;;;;;;;
2020/12/16 15:36:09;;;;;;;9.6;5.2;;;;;;;;;;;;;
2020/12/16 15:38:35;;;;;;;11.5;6.9;;;;;;;;;;;;;
2020/12/16 15:41:02;;;;;;;13.9;5.8;;;;;;;;;;;;;
2020/12/16 15:43:27;;;;;;;15.2;6.8;;;;;;;;;;;;;
2020/12/16 15:45:52;;;;;;;12;6.1;;;;;;;;;;;;;
2020/12/16 15:48:17;;;;;;;17.4;5.8;;;;;;;;;;;;;
2020/12/16 15:50:43;;;;;;;19;8.3;;;;;;;;;;;;;
2020/12/16 15:53:08;;;;;;;19.2;9.1;;;;;;;;;;;;;
2020/12/16 15:55:33;;;;;;;12.1;7.9;;;;;;;;;;;;;
2020/12/16 15:57:58;;;;;;;15.8;7.4;;;;;;;;;;;;;
2020/12/16 16:00:23;;;;;;;9.8;5.6;;;;;;;;;;;;;
2020/12/16 16:02:48;;;;;;;16.1;6;;;;;;;;;;;;;
2020/12/16 16:05:13;;;;;;;24.2;8.8;;;;;;;;;;;;;
2020/12/16 16:07:39;;;;;;;11.8;6.2;;;;;;;;;;;;;
2020/12/16 16:10:04;;;;;;;11.7;6;;;;;;;;;;;;;
2020/12/16 16:12:29;;;;;;;11.4;6.2;;;;;;;;;;;;;
2020/12/16 16:14:54;;;;;;;11.1;4.6;;;;;;;;;;;;;
2020/12/16 16:17:19;;;;;;;11.1;6.1;;;;;;;;;;;;;
2020/12/16 16:19:44;;;;;;;15.7;6.6;;;;;;;;;;;;;
2020/12/16 16:22:10;;;;;;;10.8;6;;;;;;;;;;;;;
2020/12/16 16:24:35;;;;;;;26.9;12.3;;;;;;;;;;;;;
2020/12/16 16:27:00;;;;;;;30.3;16;;;;;;;;;;;;;
2020/12/16 16:29:26;;;;;;;21.4;7.9;;;;;;;;;;;;;
2020/12/16 16:31:50;;;;;;;21.3;10.4;;;;;;;;;;;;;
2020/12/16 16:34:16;;;;;;;18.3;8.3;;;;;;;;;;;;;
2020/12/16 16:36:40;;;;;;;17.5;8.7;;;;;;;;;;;;;
2020/12/16 16:39:06;;;;;;;16.5;7.5;;;;;;;;;;;;;
2020/12/16 16:41:31;;;;;;;8.5;5.7;;;;;;;;;;;;;
2020/12/16 16:43:57;;;;;;;13.6;5.9;;;;;;;;;;;;;
2020/12/16 16:46:22;;;;;;;10.9;7.3;;;;;;;;;;;;;
2020/12/16 16:48:48;;;;;;;15.1;5.2;;;;;;;;;;;;;
2020/12/16 16:51:12;;;;;;;22.7;5.6;;;;;;;;;;;;;
2020/12/16 16:53:37;;;;;;;10.5;6.8;;;;;;;;;;;;;
2020/12/16 16:56:02;;;;;;;15.6;7.6;;;;;;;;;;;;;
2020/12/16 16:58:27;;;;;;;14.3;8.2;;;;;;;;;;;;;
2020/12/16 17:00:53;;;;;;;3.9;3.1;;;;;;;;;;;;;
2020/12/16 17:03:17;;;;;;;10.3;4.9;;;;;;;;;;;;;
2020/12/16 17:05:43;;;;;;;9.8;5.1;;;;;;;;;;;;;
2020/12/16 17:08:08;;;;;;;9.2;5.9;;;;;;;;;;;;;
2020/12/16 17:10:33;;;;;;;14.1;7;;;;;;;;;;;;;
2020/12/16 17:12:58;;;;;;;11.1;6.5;;;;;;;;;;;;;
2020/12/16 17:15:23;;;;;;;13.7;7.2;;;;;;;;;;;;;
2020/12/16 17:17:48;;;;;;;18.6;8;;;;;;;;;;;;;
2020/12/16 17:20:14;;;;;;;46.7;21.5;;;;;;;;;;;;;
2020/12/16 17:22:39;;;;;;;16.9;6.9;;;;;;;;;;;;;
2020/12/16 17:25:08;;;;;;;29.1;13.7;;;;;;;;;;;;;
2020/12/16 17:27:33;;;;;;;16.1;8.5;;;;;;;;;;;;;
2020/12/16 17:29:58;;;;;;;13.2;7.8;;;;;;;;;;;;;
2020/12/16 17:32:23;;;;;;;15.7;7.8;;;;;;;;;;;;;
2020/12/16 17:34:49;;;;;;;19.4;9;;;;;;;;;;;;;
2020/12/16 17:37:14;;;;;;;10.3;5.7;;;;;;;;;;;;;
2020/12/16 17:39:40;;;;;;;13.8;5.6;;;;;;;;;;;;;
2020/12/16 17:42:05;;;;;;;19.3;8.3;;;;;;;;;;;;;
2020/12/16 17:44:31;;;;;;;23;8.8;;;;;;;;;;;;;
2020/12/16 17:46:56;;;;;;;21.6;10.6;;;;;;;;;;;;;
2020/12/16 17:49:22;;;;;;;38.3;15.1;;;;;;;;;;;;;
2020/12/16 17:51:47;;;;;;;19.8;9.9;;;;;;;;;;;;;
2020/12/16 17:54:12;;;;;;;11.5;6.8;;;;;;;;;;;;;
2020/12/16 17:56:37;;;;;;;24.2;11.2;;;;;;;;;;;;;
2020/12/16 17:59:02;;;;;;;41.4;17.2;;;;;;;;;;;;;
2020/12/16 18:01:29;;;;;;;27.6;11.2;;;;;;;;;;;;;
2020/12/16 18:03:52;;;;;;;28.5;13.6;;;;;;;;;;;;;
2020/12/16 18:06:18;;;;;;;12.8;7.8;;;;;;;;;;;;;
2020/12/16 18:08:43;;;;;;;22.9;11.6;;;;;;;;;;;;;
2020/12/16 18:11:09;;;;;;;24.8;10.9;;;;;;;;;;;;;
2020/12/16 18:13:34;;;;;;;11.7;6.3;;;;;;;;;;;;;
2020/12/16 18:15:59;;;;;;;7.6;4.1;;;;;;;;;;;;;
2020/12/16 18:18:24;;;;;;;6.8;2.4;;;;;;;;;;;;;
2020/12/16 18:20:49;;;;;;;15;6.8;;;;;;;;;;;;;
2020/12/16 18:23:14;;;;;;;10;6.3;;;;;;;;;;;;;
2020/12/16 18:25:40;;;;;;;17.4;8.4;;;;;;;;;;;;;
2020/12/16 18:28:05;;;;;;;12.4;7.9;;;;;;;;;;;;;
2020/12/16 18:30:30;;;;;;;13.2;7.9;;;;;;;;;;;;;
2020/12/16 18:32:56;;;;;;;12.4;6.4;;;;;;;;;;;;;